createdAt,value
2023-04-22T00:00:49.585Z,78.60
2023-04-22T00:05:54.831Z,78.90
2023-04-22T00:10:58.136Z,79.20
2023-04-22T00:16:01.409Z,79.50
2023-04-22T00:21:07.554Z,79.80
2023-04-22T00:26:10.853Z,80.10
2023-04-22T00:31:15.557Z,80.40
2023-04-22T00:36:20.250Z,80.60
2023-04-22T00:41:24.476Z,81.00
2023-04-22T00:46:28.338Z,81.40
2023-04-22T00:51:34.338Z,81.30
2023-04-22T00:56:40.155Z,81.50
2023-04-22T01:01:44.872Z,81.70
2023-04-22T01:06:51.458Z,82.10
2023-04-22T01:11:55.243Z,82.20
2023-04-22T01:16:59.297Z,82.30
2023-04-22T01:22:05.272Z,82.50
2023-04-22T01:27:10.376Z,82.50
2023-04-22T01:32:14.036Z,82.40
2023-04-22T01:37:17.290Z,82.50
2023-04-22T01:42:24.108Z,82.70
2023-04-22T01:47:28.747Z,82.80
2023-04-22T01:52:32.836Z,82.90
2023-04-22T01:57:37.771Z,83.00
2023-04-22T02:02:41.784Z,83.40
2023-04-22T02:07:45.557Z,83.60
2023-04-22T02:12:53.164Z,83.70
2023-04-22T02:17:56.736Z,84.00
2023-04-22T02:23:00.682Z,84.20
2023-04-22T02:28:05.753Z,84.30
2023-04-22T02:33:09.363Z,84.60
2023-04-22T02:38:13.031Z,84.80
2023-04-22T02:43:18.210Z,84.90
2023-04-22T02:48:21.881Z,85.00
2023-04-22T02:53:25.711Z,85.10
2023-04-22T02:58:31.073Z,85.00
2023-04-22T03:03:34.961Z,85.30
2023-04-22T03:08:38.766Z,85.40
2023-04-22T03:13:43.813Z,85.40
2023-04-22T03:18:48.305Z,85.60
2023-04-22T03:23:52.341Z,85.60
2023-04-22T03:28:57.534Z,85.80
2023-04-22T03:34:01.608Z,85.70
2023-04-22T03:39:08.376Z,86.00
2023-04-22T03:44:13.195Z,86.10
2023-04-22T03:49:17.000Z,86.30
2023-04-22T03:54:22.109Z,86.50
2023-04-22T03:59:29.811Z,86.60
2023-04-22T04:04:35.019Z,86.90
2023-04-22T04:09:38.636Z,87.10
2023-04-22T04:14:44.092Z,87.30
2023-04-22T04:19:51.380Z,87.40
2023-04-22T04:24:56.302Z,87.70
2023-04-22T04:30:05.577Z,87.80
2023-04-22T04:35:18.450Z,88.80
2023-04-22T04:40:29.611Z,88.20
2023-04-22T04:45:48.492Z,85.50
2023-04-22T04:50:54.308Z,84.40
2023-04-22T04:55:59.296Z,84.70
2023-04-22T05:01:06.679Z,85.00
2023-04-22T05:06:10.940Z,85.40
2023-04-22T05:11:16.906Z,85.00
2023-04-22T05:16:24.950Z,85.00
2023-04-22T05:21:28.554Z,85.00
2023-04-22T05:26:32.840Z,84.90
2023-04-22T05:31:39.296Z,84.90
2023-04-22T05:36:44.175Z,84.50
2023-04-22T05:41:47.930Z,84.10
2023-04-22T05:46:54.451Z,83.90
2023-04-22T05:51:58.634Z,83.50
2023-04-22T05:57:08.511Z,83.20
2023-04-22T06:02:13.876Z,82.70
2023-04-22T06:07:17.999Z,82.30
2023-04-22T06:12:21.757Z,81.80
2023-04-22T06:17:26.933Z,81.40
2023-04-22T06:22:30.926Z,81.30
2023-04-22T06:27:34.150Z,80.70
2023-04-22T06:32:39.401Z,80.10
2023-04-22T06:37:43.231Z,79.70
2023-04-22T06:42:47.109Z,79.50
2023-04-22T06:48:14.881Z,79.20
2023-04-22T06:53:38.341Z,78.80
2023-04-22T06:58:41.841Z,78.60
2023-04-22T07:03:47.056Z,78.20
2023-04-22T07:08:51.941Z,77.80
2023-04-22T07:13:55.462Z,77.40
2023-04-22T07:19:00.672Z,76.80
2023-04-22T07:24:04.321Z,76.30
2023-04-22T07:29:07.847Z,75.70
2023-04-22T07:34:12.864Z,75.30
2023-04-22T07:39:16.432Z,74.70
2023-04-22T07:44:21.919Z,74.10
2023-04-22T07:49:27.042Z,73.10
2023-04-22T07:54:30.691Z,72.10
2023-04-22T07:59:34.317Z,71.20
2023-04-22T08:04:39.411Z,70.60
2023-04-22T08:09:43.036Z,69.70
2023-04-22T08:14:47.005Z,68.80
2023-04-22T08:19:51.947Z,68.10
2023-04-22T08:24:55.121Z,67.70
2023-04-22T08:30:00.123Z,67.10
2023-04-22T08:35:05.757Z,66.20
2023-04-22T08:40:10.636Z,65.50
2023-04-22T08:45:15.058Z,64.60
2023-04-22T08:50:22.570Z,63.90
2023-04-22T08:55:27.213Z,62.50
2023-04-22T09:00:31.241Z,61.60
2023-04-22T09:05:38.433Z,60.80
2023-04-22T09:10:41.922Z,60.80
2023-04-22T09:15:45.568Z,60.20
2023-04-22T09:20:51.294Z,59.40
2023-04-22T09:25:55.014Z,59.10
2023-04-22T09:31:04.261Z,58.40
2023-04-22T09:36:12.074Z,58.10
2023-04-22T09:41:15.584Z,57.70
2023-04-22T09:46:19.373Z,57.70
2023-04-22T09:51:24.528Z,57.60
2023-04-22T09:56:42.637Z,57.40
2023-04-22T10:01:46.765Z,57.00
2023-04-22T10:06:52.372Z,57.10
2023-04-22T10:11:59.540Z,56.90
2023-04-22T10:17:05.121Z,56.60
2023-04-22T10:22:13.282Z,56.10
2023-04-22T10:27:23.261Z,56.00
2023-04-22T10:32:28.310Z,55.50
2023-04-22T10:37:33.720Z,55.20
2023-04-22T10:42:37.440Z,55.00
2023-04-22T10:47:42.278Z,54.60
2023-04-22T10:52:48.515Z,54.20
2023-04-22T10:57:53.884Z,53.30
2023-04-22T11:03:19.211Z,52.90
2023-04-22T11:08:29.704Z,52.40
2023-04-22T11:13:34.307Z,52.00
2023-04-22T11:18:39.066Z,51.50
2023-04-22T11:23:50.952Z,51.40
2023-04-22T11:28:54.396Z,51.10
2023-04-22T11:34:00.887Z,51.40
2023-04-22T11:39:11.654Z,51.00
2023-04-22T11:44:16.446Z,51.10
2023-04-22T11:49:20.263Z,51.30
2023-04-22T11:54:34.123Z,51.30
2023-04-22T11:59:38.055Z,51.20
2023-04-22T12:04:42.495Z,51.20
2023-04-22T12:09:48.213Z,51.00
2023-04-22T12:14:51.773Z,51.00
2023-04-22T12:19:58.236Z,50.80
2023-04-22T12:25:03.566Z,50.80
2023-04-22T12:30:08.749Z,50.60
2023-04-22T12:35:12.340Z,50.30
2023-04-22T12:40:17.477Z,50.00
2023-04-22T12:45:23.216Z,50.00
2023-04-22T12:50:26.951Z,49.60
2023-04-22T12:55:31.885Z,49.10
2023-04-22T13:00:35.909Z,48.90
2023-04-22T13:05:40.274Z,48.80
2023-04-22T13:10:45.206Z,48.50
2023-04-22T13:15:53.841Z,48.30
2023-04-22T13:20:58.000Z,48.30
2023-04-22T13:26:03.354Z,48.20
2023-04-22T13:31:06.962Z,47.80
2023-04-22T13:36:10.698Z,47.70
2023-04-22T13:41:15.630Z,47.60
2023-04-22T13:46:19.275Z,47.40
2023-04-22T13:51:22.997Z,47.40
2023-04-22T13:56:27.648Z,47.30
2023-04-22T14:01:31.297Z,47.20
2023-04-22T14:06:35.174Z,46.80
2023-04-22T14:11:40.112Z,46.70
2023-04-22T14:16:43.743Z,46.70
2023-04-22T14:21:47.397Z,46.60
2023-04-22T14:26:52.847Z,46.60
2023-04-22T14:31:56.557Z,46.70
2023-04-22T14:37:00.142Z,46.70
2023-04-22T14:42:05.664Z,46.70
2023-04-22T14:47:09.206Z,46.70
2023-04-22T14:52:13.078Z,46.70
2023-04-22T14:57:18.165Z,46.80
2023-04-22T15:02:21.538Z,46.70
2023-04-22T15:07:25.171Z,46.80
2023-04-22T15:12:30.291Z,47.10
2023-04-22T15:17:35.254Z,46.90
2023-04-22T15:22:41.362Z,46.90
2023-04-22T15:27:46.759Z,47.00
2023-04-22T15:32:50.681Z,46.90
2023-04-22T15:37:54.558Z,46.80
2023-04-22T15:42:59.654Z,46.90
2023-04-22T15:48:03.558Z,46.90
2023-04-22T15:53:07.129Z,46.90
2023-04-22T15:58:12.167Z,47.00
2023-04-22T16:03:16.030Z,47.00
2023-04-22T16:08:19.738Z,47.00
2023-04-22T16:13:24.788Z,46.80
2023-04-22T16:18:28.528Z,46.90
2023-04-22T16:23:32.294Z,47.10
2023-04-22T16:28:37.495Z,47.10
2023-04-22T16:33:41.312Z,47.30
2023-04-22T16:38:44.978Z,47.50
2023-04-22T16:43:49.994Z,47.60
2023-04-22T16:48:53.321Z,47.40
2023-04-22T16:53:56.893Z,47.40
2023-04-22T16:59:01.841Z,47.30
2023-04-22T17:04:05.545Z,47.40
2023-04-22T17:09:10.346Z,47.60
2023-04-22T17:14:15.612Z,47.60
2023-04-22T17:19:19.117Z,47.90
2023-04-22T17:24:22.793Z,48.20
2023-04-22T17:29:27.745Z,48.60
2023-04-22T17:34:31.095Z,48.90
2023-04-22T17:39:34.671Z,49.20
2023-04-22T17:44:39.865Z,49.60
2023-04-22T17:49:43.899Z,49.90
2023-04-22T17:54:47.612Z,50.20
2023-04-22T17:59:52.830Z,50.70
2023-04-22T18:04:56.537Z,51.10
2023-04-22T18:10:00.043Z,51.60
2023-04-22T18:15:05.481Z,52.10
2023-04-22T18:20:18.259Z,52.70
2023-04-22T18:25:24.524Z,53.20
2023-04-22T18:30:30.328Z,53.80
2023-04-22T18:35:35.680Z,54.50
2023-04-22T18:40:39.316Z,55.00
2023-04-22T18:45:44.257Z,55.50
2023-04-22T18:50:47.908Z,56.10
2023-04-22T18:55:51.580Z,56.60
2023-04-22T19:00:56.597Z,57.10
2023-04-22T19:06:00.277Z,57.60
2023-04-22T19:11:03.926Z,58.20
2023-04-22T19:16:09.369Z,58.60
2023-04-22T19:21:12.810Z,59.10
2023-04-22T19:26:16.573Z,59.50
2023-04-22T19:31:21.986Z,59.90
2023-04-22T19:36:25.990Z,60.30
2023-04-22T19:41:29.745Z,60.50
2023-04-22T19:46:35.368Z,60.80
2023-04-22T19:51:41.555Z,61.10
2023-04-22T19:56:45.645Z,61.40
2023-04-22T20:01:51.175Z,61.40
2023-04-22T20:06:55.700Z,61.40
2023-04-22T20:12:00.332Z,61.40
2023-04-22T20:17:05.741Z,61.40
2023-04-22T20:22:11.536Z,61.20
2023-04-22T20:27:17.135Z,61.10
2023-04-22T20:32:21.988Z,60.80
2023-04-22T20:37:26.893Z,60.60
2023-04-22T20:42:30.603Z,60.40
2023-04-22T20:47:36.343Z,60.30
2023-04-22T20:52:40.630Z,60.30
2023-04-22T20:57:44.248Z,60.20
2023-04-22T21:02:49.961Z,60.10
2023-04-22T21:07:54.103Z,60.10
2023-04-22T21:12:57.745Z,60.20
2023-04-22T21:18:03.537Z,60.30
2023-04-22T21:23:09.029Z,60.50
2023-04-22T21:28:13.361Z,60.90
2023-04-22T21:33:18.309Z,61.30
2023-04-22T21:38:22.288Z,61.60
2023-04-22T21:43:25.825Z,61.90
2023-04-22T21:48:30.730Z,62.10
2023-04-22T21:53:34.601Z,62.30
2023-04-22T21:58:38.167Z,62.40
2023-04-22T22:03:43.363Z,62.40
2023-04-22T22:08:47.176Z,62.60
2023-04-22T22:13:52.074Z,62.50
2023-04-22T22:18:58.459Z,62.50
2023-04-22T22:24:02.024Z,62.60
2023-04-22T22:29:05.947Z,62.60
2023-04-22T22:34:11.072Z,62.70
2023-04-22T22:39:16.243Z,63.00
2023-04-22T22:44:19.483Z,63.30
2023-04-22T22:49:24.616Z,63.90
2023-04-22T22:54:28.299Z,64.30
2023-04-22T22:59:31.936Z,64.80
2023-04-22T23:04:37.814Z,65.80
2023-04-22T23:09:41.485Z,66.50
2023-04-22T23:14:45.173Z,67.30
2023-04-22T23:19:53.313Z,67.80
2023-04-22T23:24:57.540Z,68.30
2023-04-22T23:30:01.774Z,68.70
2023-04-22T23:35:08.244Z,69.10
2023-04-22T23:40:12.683Z,69.40
2023-04-22T23:45:16.437Z,69.60
2023-04-22T23:50:21.690Z,70.00
2023-04-22T23:55:25.540Z,70.20
